Time;durP1;ratioP1;P1;durP2;ratioP2;P2;SDS_P1;SDS_P2;PMS_P1;PMS_P2;Temp;Humidity;BMP_temperature;BMP_pressure;BME280_temperature;BME280_humidity;BME280_pressure;Samples;Min_cycle;Max_cycle;Signal;HPM_P1;HPM_P2
2023/05/11 00:01:29;;;;;;;50.55;32.78;;;;;;;23.10;52.26;98146.06;4771774;29;20151;-58
2023/05/11 00:04:17;;;;;;;57.17;30.73;;;;;;;23.04;51.86;98141.00;4771191;29;20116;-57
2023/05/11 00:06:47;;;;;;;54.95;31.88;;;;;;;23.03;52.30;98145.63;4764470;29;20327;-58
2023/05/11 00:09:17;;;;;;;56.80;31.55;;;;;;;23.00;52.25;98157.00;4763176;29;20503;-60
2023/05/11 00:11:46;;;;;;;59.30;33.03;;;;;;;22.97;52.37;98157.53;4765394;29;20055;-57
2023/05/11 00:14:16;;;;;;;61.65;31.98;;;;;;;22.98;52.64;98161.06;4763371;29;20064;-57
2023/05/11 00:16:45;;;;;;;60.58;31.48;;;;;;;22.95;52.54;98167.84;4765224;29;20060;-59
2023/05/11 00:19:20;;;;;;;48.30;31.05;;;;;;;22.94;52.65;98163.53;4764682;29;20741;-59
2023/05/11 00:21:50;;;;;;;56.58;31.52;;;;;;;22.92;52.72;98154.94;4765079;29;20551;-58
2023/05/11 00:24:20;;;;;;;57.92;31.92;;;;;;;22.92;52.97;98165.72;4763916;29;20052;-58
2023/05/11 00:26:49;;;;;;;50.88;30.77;;;;;;;22.92;53.33;98171.13;4763238;30;20152;-59
2023/05/11 00:29:20;;;;;;;57.97;31.38;;;;;;;22.89;53.50;98177.06;4762978;29;20129;-58
2023/05/11 00:31:49;;;;;;;53.53;30.70;;;;;;;22.93;54.17;98177.31;4774320;29;20071;-59
2023/05/11 00:34:20;;;;;;;54.53;31.63;;;;;;;22.91;54.23;98177.63;4763464;29;20052;-59
2023/05/11 00:36:49;;;;;;;50.17;29.27;;;;;;;22.94;54.60;98182.44;4764566;29;20055;-59
2023/05/11 00:39:19;;;;;;;57.65;29.48;;;;;;;22.94;54.87;98185.13;4768405;29;20079;-59
2023/05/11 00:41:48;;;;;;;50.28;28.65;;;;;;;22.95;54.95;98181.34;4777718;29;20059;-60
2023/05/11 00:44:17;;;;;;;47.35;28.48;;;;;;;22.95;54.82;98189.47;4763108;29;20059;-61
2023/05/11 00:46:47;;;;;;;50.13;27.95;;;;;;;22.99;55.06;98197.78;4764601;29;20143;-60
2023/05/11 00:49:16;;;;;;;44.00;26.90;;;;;;;23.02;55.34;98200.72;4764311;29;20143;-60
2023/05/11 00:51:46;;;;;;;50.28;26.27;;;;;;;23.05;55.20;98202.88;4762648;30;20071;-59
2023/05/11 00:54:15;;;;;;;44.80;26.08;;;;;;;23.07;55.72;98205.28;4747391;29;20063;-58
2023/05/11 00:56:44;;;;;;;41.00;25.30;;;;;;;23.12;55.61;98207.91;4762164;30;20064;-60
2023/05/11 00:59:15;;;;;;;53.40;26.02;;;;;;;23.08;55.75;98198.78;4762207;29;20072;-60
2023/05/11 01:01:44;;;;;;;47.97;26.05;;;;;;;23.19;56.13;98213.81;4762468;30;20520;-60
2023/05/11 01:04:14;;;;;;;50.47;27.45;;;;;;;23.23;56.52;98217.56;4747287;29;20052;-59
2023/05/11 01:06:53;;;;;;;49.25;27.23;;;;;;;23.26;56.73;98217.78;4762757;30;20059;-61
2023/05/11 01:09:46;;;;;;;46.53;28.08;;;;;;;23.35;57.33;98227.97;4762319;29;20425;-60
2023/05/11 01:12:33;;;;;;;50.75;27.67;;;;;;;23.38;57.44;98219.25;4753894;29;20052;-60
2023/05/11 01:15:11;;;;;;;48.88;28.33;;;;;;;23.44;57.39;98220.88;4764142;29;20055;-61
2023/05/11 01:17:50;;;;;;;50.38;28.27;;;;;;;23.49;57.69;98224.31;4762795;30;20556;-59
2023/05/11 01:20:26;;;;;;;51.45;28.38;;;;;;;23.53;57.53;98229.94;4748204;29;20390;-61
2023/05/11 01:23:02;;;;;;;47.83;28.33;;;;;;;23.61;57.49;98232.03;4763903;29;20488;-61
2023/05/11 01:25:53;;;;;;;54.35;29.73;;;;;;;23.66;57.10;98229.25;4762218;30;20824;-59
2023/05/11 01:28:51;;;;;;;61.22;29.90;;;;;;;23.76;57.05;98234.56;4762411;29;20051;-60
2023/05/11 01:31:25;;;;;;;54.05;30.67;;;;;;;23.84;57.22;98241.22;4774181;29;20063;-59
2023/05/11 01:34:01;;;;;;;63.58;30.60;;;;;;;23.93;56.93;98248.41;4763112;30;20059;-58
2023/05/11 01:36:37;;;;;;;58.70;31.33;;;;;;;24.01;56.26;98247.75;4762097;30;20055;-60
2023/05/11 01:39:09;;;;;;;63.03;31.40;;;;;;;24.11;55.79;98253.03;4750551;29;20057;-60
2023/05/11 01:41:41;;;;;;;56.38;32.47;;;;;;;24.21;55.93;98252.09;4762515;30;20052;-61
2023/05/11 01:44:12;;;;;;;56.17;31.25;;;;;;;24.37;55.38;98252.72;4747674;29;20530;-60
2023/05/11 01:46:42;;;;;;;54.42;31.75;;;;;;;24.68;54.30;98251.16;4762509;30;20473;-59
2023/05/11 01:49:13;;;;;;;65.15;32.25;;;;;;;25.34;53.06;98253.56;4748094;29;20087;-59
2023/05/11 01:51:44;;;;;;;56.85;32.05;;;;;;;26.26;50.50;98258.03;4762923;30;20137;-60
2023/05/11 01:54:16;;;;;;;48.22;30.00;;;;;;;27.12;48.67;98254.09;4757464;30;20068;-60
2023/05/11 01:56:49;;;;;;;50.63;29.60;;;;;;;27.80;46.57;98257.44;4757447;30;20064;-59
2023/05/11 01:59:19;;;;;;;57.88;30.48;;;;;;;28.40;44.66;98258.44;4760510;29;20063;-61
2023/05/11 02:01:48;;;;;;;51.70;30.58;;;;;;;28.88;43.17;98257.47;4763681;29;20167;-60
2023/05/11 02:04:22;;;;;;;56.00;30.23;;;;;;;29.29;43.50;98260.50;4762230;29;20071;-60
2023/05/11 02:06:54;;;;;;;64.30;31.77;;;;;;;29.69;42.79;98271.09;4762439;30;20067;-59
2023/05/11 02:09:24;;;;;;;49.95;27.63;;;;;;;30.07;42.45;98266.44;4761681;29;20091;-62
2023/05/11 02:11:56;;;;;;;59.50;30.17;;;;;;;30.36;40.84;98270.28;4762220;30;20063;-59
2023/05/11 02:14:32;;;;;;;56.10;30.85;;;;;;;30.58;40.95;98270.75;4762897;29;20122;-60
2023/05/11 02:17:04;;;;;;;52.05;30.75;;;;;;;30.88;40.03;98270.69;4747491;29;20087;-62
2023/05/11 02:19:36;;;;;;;55.17;30.55;;;;;;;31.10;39.32;98268.41;4761560;30;20143;-60
2023/05/11 02:22:07;;;;;;;54.78;31.30;;;;;;;31.31;38.87;98279.28;4762184;29;20060;-61
2023/05/11 02:24:37;;;;;;;53.40;29.52;;;;;;;31.50;35.97;98285.03;4761631;30;20066;-59
2023/05/11 02:27:07;;;;;;;62.22;29.52;;;;;;;31.84;37.25;98289.31;4762333;29;20137;-60
2023/05/11 02:29:37;;;;;;;50.17;27.40;;;;;;;31.90;36.83;98285.22;4761211;30;20139;-59
2023/05/11 02:32:15;;;;;;;49.28;26.85;;;;;;;31.93;37.02;98302.91;4773354;29;20847;-59
2023/05/11 02:34:54;;;;;;;43.92;26.48;;;;;;;31.94;36.31;98301.78;4761250;30;20059;-59
2023/05/11 02:37:25;;;;;;;51.75;25.67;;;;;;;31.98;37.13;98298.00;4762268;29;20048;-58
2023/05/11 02:40:00;;;;;;;46.00;25.25;;;;;;;31.94;37.62;98301.78;4769862;29;20454;-60
2023/05/11 02:42:35;;;;;;;43.28;23.23;;;;;;;32.02;36.84;98306.34;4770889;29;20494;-60
2023/05/11 02:45:09;;;;;;;41.20;23.25;;;;;;;31.97;37.47;98312.03;4761867;29;20058;-60
2023/05/11 02:47:44;;;;;;;39.83;21.20;;;;;;;31.87;36.64;98313.28;4762974;30;20055;-60
2023/05/11 02:50:23;;;;;;;39.40;21.80;;;;;;;31.90;36.23;98323.59;4764692;29;20685;-61
2023/05/11 02:52:55;;;;;;;34.95;20.30;;;;;;;31.61;36.37;98316.34;4765477;30;20179;-59
2023/05/11 02:55:28;;;;;;;37.30;21.05;;;;;;;31.76;36.54;98319.56;4765306;29;20044;-60
2023/05/11 02:57:58;;;;;;;34.95;20.65;;;;;;;31.72;35.94;98321.38;4766082;29;20125;-58
2023/05/11 03:00:28;;;;;;;35.85;20.45;;;;;;;31.74;36.08;98327.31;4764830;30;20067;-59
2023/05/11 03:02:58;;;;;;;39.95;19.75;;;;;;;31.74;35.83;98325.38;4763870;30;20083;-60
2023/05/11 03:05:27;;;;;;;49.67;20.65;;;;;;;31.53;35.28;98332.84;4759421;30;20056;-57
2023/05/11 03:07:58;;;;;;;38.13;19.75;;;;;;;31.23;35.69;98329.44;4765003;30;20066;-60
2023/05/11 03:10:29;;;;;;;35.72;17.80;;;;;;;31.20;36.17;98333.63;4764901;30;20066;-58
2023/05/11 03:12:59;;;;;;;33.60;18.02;;;;;;;31.21;36.43;98327.03;4765137;30;20062;-58
2023/05/11 03:15:30;;;;;;;35.45;17.33;;;;;;;31.20;36.97;98332.88;4757183;30;20078;-58
2023/05/11 03:18:03;;;;;;;34.55;16.63;;;;;;;31.05;37.77;98328.81;4746822;30;20051;-62
2023/05/11 03:20:35;;;;;;;32.60;16.30;;;;;;;31.07;37.51;98325.75;4734307;30;20071;-59
2023/05/11 03:23:06;;;;;;;28.35;17.10;;;;;;;31.10;37.13;98330.53;4764278;29;20063;-59
2023/05/11 03:25:36;;;;;;;37.13;17.30;;;;;;;31.12;38.14;98330.97;4750407;30;20048;-60
2023/05/11 03:28:07;;;;;;;32.58;17.05;;;;;;;31.08;37.92;98328.13;4764442;29;20055;-60
2023/05/11 03:30:38;;;;;;;32.67;16.13;;;;;;;31.10;38.22;98328.59;4772015;29;20055;-57
2023/05/11 03:33:08;;;;;;;32.28;16.85;;;;;;;31.13;37.49;98327.13;4770090;29;20136;-60
2023/05/11 03:35:42;;;;;;;32.28;15.20;;;;;;;31.07;37.86;98329.25;4750037;30;20120;-59
2023/05/11 03:38:16;;;;;;;29.23;15.82;;;;;;;31.04;38.79;98337.34;4764246;29;20062;-59
2023/05/11 03:40:47;;;;;;;31.48;14.93;;;;;;;30.96;38.26;98336.25;4779487;29;20133;-60
2023/05/11 03:43:18;;;;;;;26.67;13.52;;;;;;;30.71;37.79;98337.28;4768697;29;20080;-59
2023/05/11 03:45:53;;;;;;;25.05;12.60;;;;;;;30.76;36.86;98337.84;4763553;30;20051;-59
2023/05/11 03:48:23;;;;;;;24.92;13.05;;;;;;;30.80;36.25;98338.00;4763818;29;20713;-58
2023/05/11 03:50:53;;;;;;;34.13;13.93;;;;;;;30.88;37.86;98337.13;4748262;30;20119;-58
2023/05/11 03:53:23;;;;;;;29.42;15.27;;;;;;;30.74;38.19;98344.78;4764012;29;20136;-60
2023/05/11 03:55:54;;;;;;;27.00;14.25;;;;;;;30.62;37.36;98344.72;4765437;29;20070;-60
2023/05/11 03:58:24;;;;;;;23.50;13.70;;;;;;;30.70;36.97;98346.59;4763698;29;20067;-62
2023/05/11 04:00:53;;;;;;;21.65;12.57;;;;;;;30.75;35.91;98349.94;4764339;30;20121;-59
2023/05/11 04:03:24;;;;;;;30.52;14.02;;;;;;;30.54;36.26;98349.09;4756870;30;20059;-60
2023/05/11 04:05:55;;;;;;;31.00;13.70;;;;;;;30.47;36.68;98348.03;4759787;30;20059;-62
2023/05/11 04:08:25;;;;;;;24.85;11.45;;;;;;;30.51;36.28;98351.69;4763826;29;20056;-60
2023/05/11 04:10:54;;;;;;;17.67;9.98;;;;;;;30.77;35.36;98341.38;4764175;30;20576;-60
2023/05/11 04:13:23;;;;;;;20.13;9.10;;;;;;;30.97;34.94;98337.06;4763772;29;20147;-60
2023/05/11 04:15:53;;;;;;;22.35;10.40;;;;;;;31.14;34.11;98336.94;4763680;30;20166;-60
2023/05/11 04:18:23;;;;;;;19.77;10.55;;;;;;;31.20;34.48;98347.31;4763507;29;20056;-59
2023/05/11 04:20:53;;;;;;;23.05;11.25;;;;;;;31.31;34.62;98346.91;4763580;30;20347;-61
2023/05/11 04:23:23;;;;;;;29.77;15.65;;;;;;;31.39;34.56;98354.22;4763571;29;20051;-60
2023/05/11 04:25:53;;;;;;;35.90;16.05;;;;;;;31.55;35.57;98347.84;4763660;30;20078;-59
2023/05/11 04:28:26;;;;;;;33.63;18.02;;;;;;;31.75;36.73;98357.09;4763608;29;20393;-61
2023/05/11 04:30:57;;;;;;;35.10;16.58;;;;;;;31.80;36.00;98354.16;4773030;29;20092;-59
2023/05/11 04:33:27;;;;;;;35.05;14.82;;;;;;;31.75;34.79;98350.81;4753092;30;20116;-60
2023/05/11 04:35:57;;;;;;;24.27;13.10;;;;;;;31.83;33.96;98361.69;4763227;30;20633;-60
2023/05/11 04:38:27;;;;;;;26.05;11.02;;;;;;;32.00;33.45;98364.22;4763158;30;20060;-60
2023/05/11 04:40:56;;;;;;;23.67;11.88;;;;;;;31.95;35.23;98358.19;4779557;29;20059;-61
2023/05/11 04:43:25;;;;;;;25.73;11.73;;;;;;;32.09;34.39;98364.13;4767143;29;20055;-59
2023/05/11 04:45:55;;;;;;;26.73;11.50;;;;;;;32.27;35.21;98364.72;4763653;30;20056;-59
2023/05/11 04:48:27;;;;;;;24.13;11.40;;;;;;;31.85;35.11;98362.16;4763055;30;20518;-58
2023/05/11 04:50:58;;;;;;;24.13;12.90;;;;;;;31.58;36.09;98380.00;4763402;30;20051;-59
2023/05/11 04:53:32;;;;;;;24.88;12.40;;;;;;;31.30;35.57;98370.75;4763046;30;20125;-59
2023/05/11 04:56:03;;;;;;;34.53;13.38;;;;;;;31.07;36.27;98375.78;4756784;29;20055;-65
2023/05/11 04:58:33;;;;;;;30.33;12.43;;;;;;;31.27;36.53;98371.41;4762805;30;20100;-64
2023/05/11 05:01:02;;;;;;;27.98;11.25;;;;;;;31.25;34.23;98378.38;4762920;29;20063;-64
2023/05/11 05:03:32;;;;;;;22.10;9.93;;;;;;;31.60;35.01;98377.72;4763554;29;20067;-63
2023/05/11 05:06:01;;;;;;;27.52;10.98;;;;;;;31.83;35.00;98374.56;4762728;29;20059;-64
2023/05/11 05:08:30;;;;;;;21.75;11.02;;;;;;;32.05;33.67;98382.38;4763277;30;20075;-64
2023/05/11 05:11:00;;;;;;;27.48;10.75;;;;;;;32.24;33.72;98374.44;4762124;30;20180;-64
2023/05/11 05:13:29;;;;;;;25.65;11.23;;;;;;;32.22;32.31;98378.66;4762365;30;20056;-60
2023/05/11 05:15:59;;;;;;;33.83;12.32;;;;;;;32.48;34.13;98388.16;4748088;30;20599;-61
2023/05/11 05:18:29;;;;;;;23.10;11.98;;;;;;;32.26;33.43;98380.38;4761474;30;20133;-62
2023/05/11 05:20:59;;;;;;;27.77;12.63;;;;;;;32.47;31.74;98374.78;4761789;30;20151;-62
2023/05/11 05:23:30;;;;;;;24.75;11.65;;;;;;;32.61;33.26;98375.22;4762347;30;20063;-60
2023/05/11 05:26:00;;;;;;;37.17;13.85;;;;;;;32.58;33.78;98373.13;4762328;30;20120;-60
2023/05/11 05:28:34;;;;;;;25.30;14.10;;;;;;;32.79;35.06;98370.31;4757118;30;20060;-60
2023/05/11 05:31:04;;;;;;;24.87;12.30;;;;;;;32.88;34.16;98368.22;4769515;29;20056;-63
2023/05/11 05:33:33;;;;;;;24.88;10.25;;;;;;;32.59;31.67;98363.78;4748374;30;20087;-64
2023/05/11 05:36:04;;;;;;;20.65;8.25;;;;;;;32.74;29.28;98373.28;4762118;29;20071;-61
2023/05/11 05:38:34;;;;;;;15.95;8.48;;;;;;;32.83;29.84;98371.22;4762868;30;20070;-62
2023/05/11 05:41:03;;;;;;;15.40;7.57;;;;;;;32.69;27.77;98363.34;4776302;29;20052;-62
2023/05/11 05:43:36;;;;;;;14.73;7.25;;;;;;;32.94;29.39;98364.06;4762518;30;20573;-59
2023/05/11 05:46:06;;;;;;;21.08;8.75;;;;;;;33.17;30.82;98364.38;4767846;29;20063;-63
2023/05/11 05:48:36;;;;;;;17.20;9.73;;;;;;;33.22;29.51;98361.38;4767126;30;20477;-59
2023/05/11 05:51:06;;;;;;;19.52;9.57;;;;;;;33.27;28.52;98359.19;4760702;29;20563;-60
2023/05/11 05:53:36;;;;;;;24.55;11.45;;;;;;;33.22;28.30;98356.69;4772171;29;20127;-61
2023/05/11 05:56:05;;;;;;;24.58;11.65;;;;;;;33.30;28.77;98361.22;4762004;29;20062;-60
2023/05/11 05:58:35;;;;;;;24.17;10.82;;;;;;;33.09;28.70;98368.03;4759253;30;20447;-59
2023/05/11 06:01:05;;;;;;;20.17;9.95;;;;;;;33.21;27.88;98362.53;4762156;29;20641;-59
2023/05/11 06:03:35;;;;;;;25.33;10.45;;;;;;;33.15;29.34;98355.72;4759230;30;20059;-60
2023/05/11 06:06:04;;;;;;;19.95;10.13;;;;;;;33.09;31.02;98362.56;4761961;29;20063;-60
2023/05/11 06:08:33;;;;;;;27.98;11.18;;;;;;;33.07;30.28;98364.81;4761018;30;20068;-61
2023/05/11 06:11:03;;;;;;;17.50;10.00;;;;;;;33.14;28.93;98359.56;4744684;29;20047;-62
2023/05/11 06:13:33;;;;;;;27.15;9.75;;;;;;;32.49;28.20;98356.81;4762105;30;20056;-59
2023/05/11 06:16:02;;;;;;;18.40;9.27;;;;;;;32.44;26.96;98351.56;4728693;29;20056;-60
2023/05/11 06:18:35;;;;;;;17.77;8.82;;;;;;;32.61;26.78;98352.47;4767348;30;20131;-59
2023/05/11 06:21:06;;;;;;;15.63;7.70;;;;;;;32.92;26.49;98350.72;4744459;29;20055;-60
2023/05/11 06:23:36;;;;;;;17.95;8.65;;;;;;;32.58;26.17;98353.94;4761494;30;20158;-61
2023/05/11 06:26:06;;;;;;;15.15;8.25;;;;;;;32.52;25.80;98350.66;4750424;29;20722;-62
2023/05/11 06:28:35;;;;;;;13.20;6.65;;;;;;;32.70;26.89;98345.75;4762076;30;20158;-61
2023/05/11 06:31:09;;;;;;;16.73;7.07;;;;;;;32.68;25.25;98348.03;4768495;29;20423;-59
2023/05/11 06:33:40;;;;;;;14.73;7.40;;;;;;;32.29;25.15;98324.06;4762466;30;20396;-61
2023/05/11 06:36:19;;;;;;;14.98;7.50;;;;;;;32.51;25.15;98340.03;4761907;29;20074;-63
2023/05/11 06:38:49;;;;;;;24.58;10.95;;;;;;;32.58;25.82;98342.97;4763151;30;20059;-63
2023/05/11 06:41:20;;;;;;;24.70;13.65;;;;;;;32.60;25.76;98334.41;4790920;29;20052;-60
2023/05/11 06:43:51;;;;;;;28.23;14.55;;;;;;;32.63;27.66;98334.53;4759449;30;20074;-62
2023/05/11 06:46:29;;;;;;;37.65;16.00;;;;;;;32.51;26.63;98332.59;4758573;30;20194;-60
2023/05/11 06:48:59;;;;;;;32.50;16.50;;;;;;;32.41;29.39;98337.75;4758440;30;20676;-61
2023/05/11 06:51:30;;;;;;;28.88;17.00;;;;;;;32.01;31.40;98327.44;4757539;30;20996;-61
2023/05/11 06:54:00;;;;;;;29.98;17.10;;;;;;;31.68;29.13;98334.16;4756984;30;20052;-61
2023/05/11 06:56:30;;;;;;;30.80;18.95;;;;;;;31.73;28.65;98331.22;4762896;29;20114;-61
2023/05/11 06:59:00;;;;;;;40.60;20.08;;;;;;;31.63;29.98;98332.44;4759300;29;20485;-61
2023/05/11 07:01:30;;;;;;;34.45;18.65;;;;;;;31.53;32.25;98325.44;4759338;30;20059;-59
2023/05/11 07:04:00;;;;;;;40.95;20.30;;;;;;;31.50;33.22;98333.53;4761135;29;20044;-62
2023/05/11 07:06:29;;;;;;;33.03;20.02;;;;;;;31.81;32.02;98335.78;4760196;29;20382;-61
2023/05/11 07:08:59;;;;;;;38.40;21.33;;;;;;;31.79;31.34;98325.16;4762609;29;20052;-61
2023/05/11 07:11:29;;;;;;;36.33;20.92;;;;;;;31.74;31.61;98319.09;4746268;30;20063;-61
2023/05/11 07:13:59;;;;;;;49.78;21.75;;;;;;;31.69;31.49;98314.63;4760002;29;20047;-61
2023/05/11 07:16:28;;;;;;;35.28;20.15;;;;;;;31.64;30.94;98317.63;4760855;30;20066;-61
2023/05/11 07:18:57;;;;;;;33.83;19.48;;;;;;;31.85;31.83;98307.38;4759965;29;20415;-61
2023/05/11 07:21:28;;;;;;;34.20;18.80;;;;;;;31.99;30.84;98307.84;4761222;30;20167;-62
2023/05/11 07:23:58;;;;;;;32.35;18.65;;;;;;;32.04;30.18;98306.81;4762107;29;20492;-61
2023/05/11 07:26:28;;;;;;;37.10;17.30;;;;;;;32.08;30.25;98300.31;4760907;29;20079;-61
2023/05/11 07:28:57;;;;;;;32.08;18.35;;;;;;;32.16;29.83;98301.34;4761410;30;20059;-60
2023/05/11 07:31:28;;;;;;;31.45;17.85;;;;;;;32.09;30.66;98293.69;4759933;29;20983;-60
2023/05/11 07:33:58;;;;;;;28.50;16.25;;;;;;;31.98;31.21;98298.00;4763590;29;20051;-61
2023/05/11 07:36:27;;;;;;;27.33;16.13;;;;;;;32.10;30.03;98297.22;4761446;30;20139;-60
2023/05/11 07:38:58;;;;;;;30.63;15.25;;;;;;;32.13;30.95;98301.25;4777082;29;20055;-61
2023/05/11 07:41:28;;;;;;;28.20;17.00;;;;;;;32.09;28.40;98288.19;4765260;29;20203;-60
2023/05/11 07:44:00;;;;;;;28.35;16.20;;;;;;;32.07;29.86;98290.47;4757729;29;20052;-60
2023/05/11 07:46:30;;;;;;;34.08;15.45;;;;;;;31.92;29.48;98288.41;4767743;29;20056;-61
2023/05/11 07:48:59;;;;;;;32.13;15.00;;;;;;;31.92;28.85;98284.88;4766086;29;20063;-61
2023/05/11 07:51:45;;;;;;;28.20;14.73;;;;;;;31.82;29.33;98283.38;4773146;29;20551;-62
2023/05/11 07:54:15;;;;;;;26.83;14.73;;;;;;;32.03;29.13;98284.09;4779013;29;20135;-62
2023/05/11 07:56:47;;;;;;;39.53;15.75;;;;;;;32.22;28.67;98285.47;4776714;29;20059;-61
2023/05/11 07:59:16;;;;;;;32.22;15.50;;;;;;;32.17;29.83;98282.97;4777520;29;20516;-61
2023/05/11 08:01:46;;;;;;;28.25;14.98;;;;;;;32.10;32.16;98278.03;4771556;29;20861;-59
2023/05/11 08:04:15;;;;;;;22.77;10.73;;;;;;;31.96;28.75;98277.56;4767068;29;20051;-60
2023/05/11 08:06:44;;;;;;;21.58;9.32;;;;;;;32.13;29.09;98274.63;4764762;30;20807;-59
2023/05/11 08:09:15;;;;;;;20.30;8.50;;;;;;;32.10;29.92;98272.56;4765584;29;20071;-60
2023/05/11 08:11:44;;;;;;;16.15;7.60;;;;;;;32.02;30.11;98268.78;4776179;29;20146;-60
2023/05/11 08:14:13;;;;;;;12.25;7.35;;;;;;;32.11;29.20;98265.16;4765399;29;20070;-61
2023/05/11 08:16:42;;;;;;;15.13;7.75;;;;;;;32.17;28.41;98261.03;4767753;29;20073;-60
2023/05/11 08:19:14;;;;;;;13.90;7.63;;;;;;;32.21;27.99;98257.25;4767423;29;20125;-61
2023/05/11 08:21:45;;;;;;;17.17;7.90;;;;;;;32.09;28.74;98257.25;4746262;30;20062;-61
2023/05/11 08:24:15;;;;;;;17.27;8.05;;;;;;;32.55;25.30;98253.19;4754010;29;20052;-67
2023/05/11 08:26:45;;;;;;;19.33;9.15;;;;;;;32.86;22.97;98245.09;4766155;29;20059;-64
2023/05/11 08:29:14;;;;;;;20.25;8.35;;;;;;;33.24;21.94;98244.56;4774766;29;20158;-63
2023/05/11 08:31:44;;;;;;;22.67;8.55;;;;;;;33.45;23.28;98241.59;4763705;30;20059;-62
2023/05/11 08:34:14;;;;;;;16.92;8.02;;;;;;;33.59;21.55;98239.19;4761417;29;20163;-67
2023/05/11 08:36:48;;;;;;;23.85;8.40;;;;;;;33.90;21.90;98237.63;4762648;29;20060;-69
2023/05/11 08:39:21;;;;;;;21.40;8.27;;;;;;;34.05;18.66;98234.81;4767799;29;20765;-67
2023/05/11 08:42:12;;;;;;;17.52;7.50;;;;;;;34.34;17.75;98225.28;4764347;29;20502;-64
2023/05/11 08:44:43;;;;;;;19.73;8.50;;;;;;;34.55;20.19;98223.00;4763153;29;20058;-60
2023/05/11 08:47:13;;;;;;;23.52;7.75;;;;;;;34.62;21.23;98217.63;4763548;29;20059;-63
2023/05/11 08:49:46;;;;;;;;;;;;;;;34.72;20.66;98216.28;4760723;29;20073;-62
2023/05/11 08:52:17;;;;;;;17.98;7.55;;;;;;;34.84;22.07;98210.59;4762456;29;19940;-63
2023/05/11 08:54:48;;;;;;;17.52;9.05;;;;;;;35.04;20.04;98209.44;4761733;30;20102;-65
2023/05/11 08:57:17;;;;;;;20.83;9.35;;;;;;;34.99;20.27;98212.47;4760712;29;20066;-64
2023/05/11 08:59:48;;;;;;;16.98;9.27;;;;;;;35.05;19.88;98204.72;4762123;29;20055;-63
2023/05/11 09:02:19;;;;;;;20.60;9.65;;;;;;;35.09;20.86;98191.81;4759893;29;20051;-62
2023/05/11 09:04:50;;;;;;;15.52;9.75;;;;;;;35.05;21.22;98193.72;4762451;29;20067;-61
2023/05/11 09:07:21;;;;;;;21.17;9.63;;;;;;;34.99;21.67;98189.66;4763424;29;20818;-63
2023/05/11 09:09:51;;;;;;;20.88;9.98;;;;;;;34.98;23.44;98190.81;4761303;30;20055;-66
2023/05/11 09:12:24;;;;;;;20.77;9.57;;;;;;;34.94;22.88;98185.25;4760650;29;20111;-65
2023/05/11 09:14:55;;;;;;;23.45;9.40;;;;;;;34.94;23.47;98187.19;4760700;29;20055;-65
2023/05/11 09:17:29;;;;;;;22.08;8.40;;;;;;;34.91;22.30;98177.72;4762719;29;20054;-67
2023/05/11 09:20:08;;;;;;;17.67;8.93;;;;;;;34.89;20.38;98173.75;4762831;29;20059;-67
2023/05/11 09:22:44;;;;;;;17.15;8.35;;;;;;;34.98;22.09;98177.06;4761900;29;20060;-65
2023/05/11 09:25:16;;;;;;;19.85;8.20;;;;;;;35.20;22.52;98168.03;4759283;29;20166;-66
2023/05/11 09:27:47;;;;;;;18.73;8.30;;;;;;;35.30;22.25;98161.13;4759224;30;20136;-65
2023/05/11 09:30:20;;;;;;;17.77;8.60;;;;;;;35.48;22.60;98163.00;4760252;29;20060;-65
2023/05/11 09:32:58;;;;;;;17.75;9.40;;;;;;;35.57;20.69;98152.53;4759974;29;20834;-60
2023/05/11 09:35:29;;;;;;;15.40;9.07;;;;;;;35.65;21.08;98155.41;4759502;29;20129;-62
2023/05/11 09:38:06;;;;;;;20.83;8.88;;;;;;;35.75;22.59;98146.50;4758943;29;20060;-60
2023/05/11 09:40:43;;;;;;;11.80;6.70;;;;;;;35.80;17.77;98151.69;4758840;30;20545;-60
2023/05/11 09:43:26;;;;;;;11.40;5.95;;;;;;;35.82;15.78;98138.31;4759045;29;20087;-61
2023/05/11 09:46:05;;;;;;;16.20;6.55;;;;;;;35.76;17.42;98139.84;4758558;30;20060;-63
2023/05/11 09:48:35;;;;;;;14.50;6.75;;;;;;;35.64;18.21;98131.72;4759021;29;20593;-62
2023/05/11 09:51:06;;;;;;;15.30;6.45;;;;;;;35.51;17.93;98134.69;4767002;29;20072;-62
2023/05/11 09:53:43;;;;;;;16.48;6.40;;;;;;;35.40;18.39;98130.22;4759523;29;20052;-60
2023/05/11 09:56:14;;;;;;;22.00;6.13;;;;;;;35.35;16.43;98131.31;4760353;29;20154;-60
2023/05/11 09:58:53;;;;;;;15.85;6.10;;;;;;;35.26;16.91;98128.03;4759850;30;20052;-61
2023/05/11 10:01:35;;;;;;;10.32;4.68;;;;;;;35.14;19.50;98122.69;4757116;29;20052;-62
2023/05/11 10:04:07;;;;;;;8.80;5.25;;;;;;;35.09;20.79;98114.72;4758674;29;20162;-61
2023/05/11 10:06:52;;;;;;;13.15;5.38;;;;;;;35.07;19.24;98111.53;4757732;29;20052;-60
2023/05/11 10:09:26;;;;;;;10.25;4.82;;;;;;;35.01;18.31;98121.25;4759420;29;20059;-61
2023/05/11 10:11:55;;;;;;;8.88;4.35;;;;;;;35.03;19.64;98116.97;4758930;30;20055;-60
2023/05/11 10:14:26;;;;;;;9.27;3.55;;;;;;;35.02;18.73;98114.59;4759283;29;20731;-63
2023/05/11 10:51:26;;;;;;;15.50;5.78;;;;;;;32.14;26.56;98102.75;5086564;27;20578;-63
2023/05/11 10:54:01;;;;;;;17.58;7.15;;;;;;;31.83;27.54;98108.88;5082497;28;20124;-65
2023/05/11 10:56:42;;;;;;;12.40;7.22;;;;;;;31.60;27.23;98105.84;5081637;28;20098;-62
2023/05/11 10:59:18;;;;;;;10.35;6.75;;;;;;;31.45;27.79;98106.53;5078161;28;20507;-63
2023/05/11 11:01:53;;;;;;;14.57;7.03;;;;;;;31.29;28.63;98106.41;5088529;28;20593;-64
2023/05/11 11:04:22;;;;;;;10.82;6.35;;;;;;;31.16;28.84;98105.59;5081171;28;20048;-63
2023/05/11 11:07:06;;;;;;;13.95;6.25;;;;;;;31.14;28.36;98099.69;5081424;28;20055;-63
2023/05/11 11:10:11;;;;;;;14.07;6.15;;;;;;;31.16;28.68;98102.06;5082807;28;20055;-64
2023/05/11 11:13:03;;;;;;;19.27;6.40;;;;;;;31.06;29.60;98094.34;5080386;28;20504;-65
2023/05/11 11:15:55;;;;;;;12.63;6.22;;;;;;;30.93;29.68;98096.22;5083103;28;20056;-65
2023/05/11 11:18:32;;;;;;;11.83;6.53;;;;;;;30.89;29.09;98089.81;5073993;28;20048;-60
2023/05/11 11:21:03;;;;;;;15.95;6.30;;;;;;;30.89;29.85;98089.81;5062954;28;20044;-63
2023/05/11 11:23:51;;;;;;;13.98;6.50;;;;;;;30.95;30.22;98093.94;5070176;28;20040;-63
2023/05/11 11:26:49;;;;;;;13.60;6.55;;;;;;;30.94;30.09;98097.00;5085663;28;20052;-62
2023/05/11 11:29:18;;;;;;;13.07;6.55;;;;;;;30.89;29.77;98089.81;5072082;28;20123;-60
2023/05/11 11:31:48;;;;;;;15.38;6.97;;;;;;;30.89;31.38;98091.78;5080234;28;20816;-62
2023/05/11 11:34:31;;;;;;;22.13;6.47;;;;;;;30.82;31.61;98092.31;5082133;28;20048;-62
2023/05/11 11:37:02;;;;;;;13.30;6.47;;;;;;;30.77;33.75;98090.59;5083429;28;20052;-61
2023/05/11 11:39:40;;;;;;;13.30;5.82;;;;;;;30.76;32.63;98088.19;5080655;28;20067;-60
2023/05/11 11:42:11;;;;;;;13.73;6.65;;;;;;;30.75;33.15;98095.63;5082521;28;20202;-60
2023/05/11 11:44:43;;;;;;;17.23;6.80;;;;;;;30.72;32.64;98090.03;5082665;28;20056;-61
2023/05/11 11:47:12;;;;;;;14.20;6.47;;;;;;;30.65;32.43;98092.53;5082451;28;20467;-64
2023/05/11 11:49:44;;;;;;;16.02;6.90;;;;;;;30.56;31.07;98089.09;5082277;28;20139;-62
2023/05/11 11:52:43;;;;;;;11.97;6.67;;;;;;;30.50;30.79;98087.69;5067725;28;20045;-63
2023/05/11 11:55:49;;;;;;;14.43;7.63;;;;;;;30.43;32.62;98088.22;5036296;28;20049;-64
2023/05/11 11:58:42;;;;;;;15.80;7.47;;;;;;;30.36;33.18;98081.72;5066299;28;20059;-63
2023/05/11 12:01:16;;;;;;;13.55;7.45;;;;;;;30.28;33.46;98091.56;5040695;28;20487;-61
2023/05/11 12:03:53;;;;;;;20.75;7.20;;;;;;;30.19;34.42;98093.59;5066279;28;20079;-62
2023/05/11 12:06:31;;;;;;;14.93;8.00;;;;;;;30.12;34.98;98091.41;5067394;28;20056;-60
2023/05/11 12:09:01;;;;;;;21.83;8.32;;;;;;;30.04;35.53;98092.28;5068115;28;20040;-64
2023/05/11 12:11:32;;;;;;;18.70;8.35;;;;;;;30.04;35.44;98086.03;5068100;28;20109;-62
2023/05/11 12:14:02;;;;;;;20.63;8.15;;;;;;;30.08;33.24;98085.03;5067640;28;20047;-60
2023/05/11 12:16:31;;;;;;;19.33;7.75;;;;;;;30.10;33.50;98080.00;5068475;28;20151;-61
2023/05/11 12:19:00;;;;;;;24.73;8.20;;;;;;;30.15;33.22;98087.19;5068490;28;20036;-62
2023/05/11 12:21:31;;;;;;;21.05;7.80;;;;;;;30.18;32.61;98092.78;5068228;28;20136;-63